Time;durP1;ratioP1;P1;durP2;ratioP2;P2;SDS_P1;SDS_P2;PMS_P1;PMS_P2;Temp;Humidity;BMP_temperature;BMP_pressure;BME280_temperature;BME280_humidity;BME280_pressure;Samples;Min_cycle;Max_cycle;Signal;HPM_P1;HPM_P2
2022/10/23 00:00:48;;;;;;;33.20;18.25;;;;;;;14.32;69.13;99042.38;4488514;31;20136;-79
2022/10/23 00:03:13;;;;;;;31.02;18.08;;;;;;;14.33;69.03;99046.72;4480428;31;20127;-80
2022/10/23 00:05:40;;;;;;;30.70;17.83;;;;;;;14.34;68.97;99050.22;4478520;31;20108;-81
2022/10/23 00:08:06;;;;;;;29.87;17.33;;;;;;;14.37;68.89;99052.69;4477575;31;20118;-80
2022/10/23 00:10:32;;;;;;;32.20;18.15;;;;;;;14.38;68.69;99059.66;4493771;31;20112;-81
2022/10/23 00:12:57;;;;;;;29.95;17.00;;;;;;;14.45;68.54;99052.19;4490854;31;20454;-79
2022/10/23 00:15:23;;;;;;;27.73;16.10;;;;;;;14.46;68.46;99051.22;4489644;31;20163;-84
2022/10/23 00:17:49;;;;;;;27.62;15.32;;;;;;;14.41;68.71;99061.25;4486409;31;20164;-82
2022/10/23 00:20:15;;;;;;;26.30;14.93;;;;;;;14.46;68.70;99056.50;4481326;32;20433;-81
2022/10/23 00:22:41;;;;;;;24.23;13.98;;;;;;;14.54;68.59;99067.44;4493017;31;20110;-80
2022/10/23 00:25:08;;;;;;;24.05;13.02;;;;;;;14.52;68.82;99058.75;4490995;31;20384;-81
2022/10/23 00:27:33;;;;;;;24.55;14.02;;;;;;;14.55;68.73;99059.41;4483552;31;20168;-80
2022/10/23 00:30:00;;;;;;;23.87;13.80;;;;;;;14.53;69.11;99068.41;4485440;32;20080;-81
2022/10/23 00:32:26;;;;;;;22.33;12.90;;;;;;;14.51;69.28;99065.03;4480649;32;20160;-79
2022/10/23 00:34:51;;;;;;;23.67;14.30;;;;;;;14.55;69.38;99069.16;4479085;31;20112;-81
2022/10/23 00:37:17;;;;;;;22.25;12.68;;;;;;;14.54;70.14;99075.41;4475616;32;20100;-80
2022/10/23 00:39:42;;;;;;;26.23;14.40;;;;;;;14.47;70.62;99082.09;4496684;31;20439;-80
2022/10/23 00:42:11;;;;;;;22.45;13.32;;;;;;;14.54;70.45;99081.59;4489655;31;20096;-81
2022/10/23 00:44:39;;;;;;;24.85;13.43;;;;;;;14.41;70.84;99095.72;4478445;32;20119;-80
2022/10/23 00:47:05;;;;;;;24.20;13.70;;;;;;;14.51;70.48;99102.97;4494693;31;20092;-80
2022/10/23 00:49:31;;;;;;;22.92;13.65;;;;;;;14.51;70.28;99095.03;4473902;32;20116;-80
2022/10/23 00:52:00;;;;;;;26.58;14.43;;;;;;;14.60;69.62;99090.09;4483936;31;20456;-80
2022/10/23 00:54:29;;;;;;;24.23;13.85;;;;;;;14.50;70.31;99095.97;4476498;31;20202;-80
2022/10/23 00:56:59;;;;;;;24.25;13.32;;;;;;;14.32;71.04;99098.03;4464156;31;20112;-80
2022/10/23 00:59:28;;;;;;;24.73;13.45;;;;;;;14.51;69.89;99102.97;4463847;32;20152;-77
2022/10/23 01:01:54;;;;;;;24.27;13.65;;;;;;;14.57;69.27;99101.75;4470145;32;20459;-79
2022/10/23 01:04:20;;;;;;;23.73;13.57;;;;;;;14.57;68.92;99100.91;4484274;31;20080;-80
2022/10/23 01:06:45;;;;;;;23.20;13.25;;;;;;;14.55;68.67;99098.31;4465886;31;20107;-78
2022/10/23 01:09:48;;;;;;;22.37;12.52;;;;;;;14.51;68.65;99102.97;4475241;32;20143;-80
2022/10/23 01:12:41;;;;;;;24.10;13.75;;;;;;;14.53;68.34;99102.88;4485355;32;20096;-79
2022/10/23 01:15:18;;;;;;;22.35;12.32;;;;;;;14.51;68.19;99113.59;4485459;31;20243;-80
2022/10/23 01:17:51;;;;;;;23.90;13.13;;;;;;;14.48;68.27;99115.56;4497802;31;20107;-80
2022/10/23 01:20:34;;;;;;;24.27;13.15;;;;;;;14.35;68.81;99121.69;4480725;32;20096;-80
2022/10/23 01:23:00;;;;;;;24.55;13.43;;;;;;;14.43;68.65;99115.91;4480381;31;20111;-80
2022/10/23 01:25:28;;;;;;;26.23;13.90;;;;;;;14.42;68.87;99121.28;4488327;31;20104;-80
2022/10/23 01:28:02;;;;;;;25.70;15.45;;;;;;;14.27;69.20;99118.66;4498259;31;20220;-79
2022/10/23 01:30:28;;;;;;;27.40;15.52;;;;;;;13.85;72.64;99109.87;4463078;31;20089;-80
2022/10/23 01:33:00;;;;;;;27.90;15.25;;;;;;;13.62;73.88;99118.38;4492220;31;20110;-79
2022/10/23 01:35:52;;;;;;;25.25;14.90;;;;;;;14.01;72.33;99119.50;4495695;31;20126;-80
2022/10/23 01:38:28;;;;;;;25.50;14.63;;;;;;;14.10;72.35;99124.19;4455497;32;20089;-81
2022/10/23 01:41:10;;;;;;;26.65;16.05;;;;;;;14.16;71.68;99127.31;4477427;32;20424;-79
2022/10/23 01:43:58;;;;;;;25.83;14.75;;;;;;;14.19;71.32;99122.78;4457821;31;20174;-79
2022/10/23 01:46:25;;;;;;;29.90;15.70;;;;;;;14.19;71.06;99126.25;4480534;32;20209;-79
2022/10/23 01:48:53;;;;;;;25.33;14.57;;;;;;;14.29;70.17;99131.81;4478874;31;20104;-80
2022/10/23 01:51:18;;;;;;;;;;;;;;;14.34;69.68;99127.09;4489639;31;20118;-79
2022/10/23 01:53:46;;;;;;;26.75;15.73;;;;;;;14.47;69.11;99128.00;4483835;31;20011;-79
2022/10/23 01:56:12;;;;;;;;;;;;;;;14.41;69.14;99127.53;4473835;31;20123;-79
2022/10/23 01:58:38;;;;;;;27.87;15.45;;;;;;;14.47;68.98;99132.44;4478631;32;19987;-79
2022/10/23 02:01:05;;;;;;;25.20;15.40;;;;;;;14.38;69.05;99122.44;4478794;31;20106;-80
2022/10/23 02:03:32;;;;;;;25.40;14.50;;;;;;;14.43;68.66;99126.50;4473690;32;20171;-80
2022/10/23 02:05:57;;;;;;;26.27;14.60;;;;;;;14.40;68.71;99126.69;4482190;32;20127;-79
2022/10/23 02:08:24;;;;;;;29.58;15.57;;;;;;;14.43;68.31;99125.63;4485028;31;20104;-80
2022/10/23 02:11:19;;;;;;;27.40;15.65;;;;;;;14.36;68.49;99125.19;4477831;31;20087;-79
2022/10/23 02:14:06;;;;;;;28.62;15.07;;;;;;;14.35;69.07;99129.63;4470783;31;20451;-79
2022/10/23 02:16:40;;;;;;;28.40;16.40;;;;;;;14.35;69.06;99129.63;4479951;32;20101;-80
2022/10/23 02:19:09;;;;;;;27.52;15.68;;;;;;;14.30;68.96;99126.44;4471976;32;20099;-79
2022/10/23 02:21:54;;;;;;;28.38;16.17;;;;;;;14.34;68.62;99132.37;4470455;32;20126;-79
2022/10/23 02:24:27;;;;;;;27.92;15.88;;;;;;;14.23;68.82;99130.41;4481012;32;20110;-78
2022/10/23 02:26:55;;;;;;;31.62;17.60;;;;;;;14.12;68.90;99133.75;4477200;31;20128;-79
2022/10/23 02:29:34;;;;;;;30.85;15.95;;;;;;;14.20;68.38;99125.31;4473705;32;20100;-79
2022/10/23 02:31:59;;;;;;;;;;;;;;;14.21;68.27;99131.47;4472532;31;20118;-77
2022/10/23 02:34:25;;;;;;;25.73;14.87;;;;;;;14.18;68.22;99124.56;4480748;32;19976;-78
2022/10/23 02:36:51;;;;;;;31.62;18.00;;;;;;;14.21;67.92;99121.72;4478290;31;20143;-79
2022/10/23 02:39:16;;;;;;;33.33;18.80;;;;;;;13.62;70.91;99132.50;4475028;32;20141;-79
2022/10/23 02:41:55;;;;;;;35.40;19.52;;;;;;;14.00;69.51;99137.16;4497378;31;20091;-78
2022/10/23 02:44:39;;;;;;;31.60;17.92;;;;;;;14.03;69.49;99138.78;4489280;31;20114;-78
2022/10/23 02:47:22;;;;;;;31.00;16.20;;;;;;;14.05;69.14;99158.94;4489586;31;20797;-78
2022/10/23 02:50:06;;;;;;;31.58;17.23;;;;;;;13.86;69.02;99158.38;4469061;31;20234;-79
2022/10/23 02:52:40;;;;;;;31.02;18.17;;;;;;;13.82;69.33;99159.53;4476982;31;20087;-79
2022/10/23 02:55:06;;;;;;;33.30;18.45;;;;;;;13.96;68.54;99154.22;4473936;32;20089;-79
2022/10/23 02:57:35;;;;;;;33.72;18.92;;;;;;;13.78;68.99;99161.50;4497216;31;20088;-80
2022/10/23 03:00:10;;;;;;;29.27;17.15;;;;;;;13.96;68.26;99155.09;4471672;31;20453;-80
2022/10/23 03:02:41;;;;;;;30.33;17.55;;;;;;;13.94;68.12;99156.94;4479254;32;20796;-79
2022/10/23 03:05:10;;;;;;;29.00;16.20;;;;;;;13.99;67.81;99161.13;4478772;31;20502;-80
2022/10/23 03:07:37;;;;;;;31.42;16.87;;;;;;;13.96;67.61;99155.09;4472556;31;20155;-80
2022/10/23 03:10:03;;;;;;;33.65;17.90;;;;;;;13.96;67.44;99165.69;4498689;31;20214;-80
2022/10/23 03:12:29;;;;;;;29.65;17.65;;;;;;;13.74;68.39;99165.28;4477056;31;20096;-79
2022/10/23 03:14:54;;;;;;;34.75;18.48;;;;;;;13.88;67.83;99170.56;4476510;32;20347;-80
2022/10/23 03:17:19;;;;;;;32.47;18.10;;;;;;;13.86;67.85;99168.97;4496654;31;20466;-80
2022/10/23 03:19:45;;;;;;;32.58;18.23;;;;;;;13.92;67.70;99171.25;4488594;31;20115;-79
2022/10/23 03:22:10;;;;;;;30.88;17.77;;;;;;;13.88;67.69;99173.22;4497280;31;20092;-80
2022/10/23 03:24:36;;;;;;;29.65;16.50;;;;;;;13.79;67.73;99173.81;4491583;31;20419;-80
2022/10/23 03:27:01;;;;;;;26.77;14.52;;;;;;;13.86;67.70;99177.78;4492205;31;20119;-80
2022/10/23 03:29:33;;;;;;;26.40;14.77;;;;;;;13.69;68.08;99193.84;4483610;31;20093;-81
2022/10/23 03:31:58;;;;;;;25.75;14.52;;;;;;;13.85;67.67;99177.84;4474117;31;20175;-80
2022/10/23 03:34:26;;;;;;;27.90;14.90;;;;;;;13.73;68.57;99175.03;4495819;31;20138;-80
2022/10/23 03:36:52;;;;;;;26.75;14.93;;;;;;;13.80;68.24;99172.00;4493027;31;20085;-79
2022/10/23 03:39:17;;;;;;;25.75;14.45;;;;;;;13.68;68.53;99177.13;4489223;31;20115;-79
2022/10/23 03:41:43;;;;;;;30.88;13.52;;;;;;;13.77;68.25;99179.19;4482845;31;20080;-79
2022/10/23 03:44:08;;;;;;;22.55;12.52;;;;;;;13.84;68.05;99176.16;4474656;31;20119;-79
2022/10/23 03:46:33;;;;;;;23.38;12.65;;;;;;;13.86;67.87;99179.56;4495094;31;20176;-81
2022/10/23 03:48:59;;;;;;;21.12;11.38;;;;;;;13.84;67.76;99179.66;4467258;31;20381;-80
2022/10/23 03:51:25;;;;;;;22.62;11.43;;;;;;;13.85;67.76;99180.50;4475449;32;20104;-81
2022/10/23 03:53:50;;;;;;;23.15;11.32;;;;;;;13.84;67.82;99178.81;4497910;31;20149;-81
2022/10/23 03:56:16;;;;;;;20.67;11.07;;;;;;;13.86;67.81;99183.06;4490175;31;20394;-82
2022/10/23 03:58:41;;;;;;;20.27;10.80;;;;;;;13.92;67.92;99187.13;4494470;31;20368;-80
2022/10/23 04:01:07;;;;;;;18.20;10.43;;;;;;;13.89;68.05;99182.03;4495278;31;20136;-82
2022/10/23 04:03:32;;;;;;;19.62;10.35;;;;;;;13.85;68.39;99185.81;4472819;32;20080;-83
2022/10/23 04:05:58;;;;;;;20.30;10.35;;;;;;;13.84;68.71;99186.75;4479573;31;20116;-82
2022/10/23 04:08:23;;;;;;;17.75;9.90;;;;;;;13.87;68.52;99184.78;4482270;31;20392;-82
2022/10/23 04:10:49;;;;;;;19.00;10.23;;;;;;;13.92;68.41;99182.69;4493765;31;20174;-82
2022/10/23 04:13:14;;;;;;;19.60;10.50;;;;;;;13.94;68.36;99182.59;4496690;31;20458;-80
2022/10/23 04:15:40;;;;;;;18.27;9.98;;;;;;;13.97;68.34;99182.41;4487847;31;20161;-81
2022/10/23 04:18:05;;;;;;;19.52;10.75;;;;;;;13.97;68.42;99182.41;4498374;31;20108;-82
2022/10/23 04:20:31;;;;;;;19.23;10.65;;;;;;;13.93;68.85;99181.75;4476360;31;20120;-82
2022/10/23 04:22:56;;;;;;;20.40;10.85;;;;;;;13.85;69.73;99185.81;4490832;31;20100;-82
2022/10/23 04:25:22;;;;;;;20.55;10.05;;;;;;;13.74;70.33;99181.19;4495415;31;20463;-82
2022/10/23 04:27:47;;;;;;;20.77;10.45;;;;;;;13.85;70.00;99181.38;4486392;31;20088;-82
2022/10/23 04:30:13;;;;;;;18.73;10.05;;;;;;;13.92;69.44;99174.72;4497336;31;20097;-81
2022/10/23 04:32:41;;;;;;;19.25;10.25;;;;;;;13.72;70.52;99177.78;4493763;31;20118;-82
2022/10/23 04:35:07;;;;;;;18.92;10.30;;;;;;;13.75;70.28;99175.81;4491298;31;20120;-82
2022/10/23 04:37:32;;;;;;;21.08;11.55;;;;;;;13.54;71.40;99177.97;4484446;31;20165;-82
2022/10/23 04:39:58;;;;;;;20.37;10.90;;;;;;;13.77;70.53;99165.09;4483000;32;20226;-82
2022/10/23 04:42:23;;;;;;;20.48;10.95;;;;;;;13.86;69.98;99164.53;4490992;31;20107;-82
2022/10/23 04:44:48;;;;;;;21.73;11.75;;;;;;;13.89;69.76;99169.66;4486224;31;20183;-83
2022/10/23 04:47:14;;;;;;;22.65;11.73;;;;;;;13.60;71.61;99166.16;4503395;31;20184;-83
2022/10/23 04:49:39;;;;;;;21.90;11.82;;;;;;;13.63;71.70;99173.88;4503525;31;20132;-83
2022/10/23 04:52:05;;;;;;;21.75;11.35;;;;;;;13.83;70.58;99167.38;4503518;31;20478;-83
2022/10/23 04:54:38;;;;;;;19.40;10.50;;;;;;;13.93;69.95;99165.84;4488598;31;20124;-83
2022/10/23 04:57:03;;;;;;;17.58;10.15;;;;;;;14.02;69.60;99174.16;4502432;31;20176;-83
2022/10/23 04:59:29;;;;;;;16.90;9.20;;;;;;;14.00;69.47;99178.72;4489033;31;20456;-83
2022/10/23 05:01:54;;;;;;;16.15;8.38;;;;;;;14.01;69.40;99183.91;4503384;31;20137;-83
2022/10/23 05:04:20;;;;;;;16.85;8.23;;;;;;;14.04;69.43;99180.22;4503395;31;20097;-83
2022/10/23 05:06:45;;;;;;;19.20;9.00;;;;;;;14.07;69.35;99185.34;4503291;31;20088;-83
2022/10/23 05:09:11;;;;;;;19.25;9.15;;;;;;;14.12;69.16;99186.75;4488743;31;20096;-83
2022/10/23 05:11:36;;;;;;;18.95;9.38;;;;;;;14.14;69.17;99189.31;4503331;31;20079;-83
2022/10/23 05:14:02;;;;;;;19.50;10.32;;;;;;;14.16;69.10;99190.91;4503206;31;20092;-83
2022/10/23 05:16:49;;;;;;;19.55;10.63;;;;;;;14.19;69.18;99199.59;4503199;31;20100;-82
2022/10/23 05:19:21;;;;;;;19.17;9.88;;;;;;;14.22;69.20;99197.62;4475514;31;20087;-82
2022/10/23 05:21:48;;;;;;;20.12;11.35;;;;;;;14.23;69.38;99198.47;4488460;31;20088;-82
2022/10/23 05:24:13;;;;;;;22.17;11.48;;;;;;;14.23;69.68;99190.50;4488544;31;20112;-82
2022/10/23 05:26:38;;;;;;;20.05;10.70;;;;;;;14.26;69.62;99195.63;4503012;31;20080;-83
2022/10/23 05:29:07;;;;;;;20.80;11.55;;;;;;;14.11;70.58;99190.34;4502836;31;20120;-82
2022/10/23 05:31:33;;;;;;;21.20;11.80;;;;;;;14.24;70.04;99185.13;4488576;31;20110;-82
2022/10/23 05:33:59;;;;;;;20.90;11.05;;;;;;;14.11;70.87;99190.34;4502849;31;20100;-83
2022/10/23 05:36:25;;;;;;;17.30;9.80;;;;;;;14.01;71.21;99191.88;4488551;31;20131;-83
2022/10/23 05:38:50;;;;;;;18.70;9.93;;;;;;;14.23;70.42;99199.31;4502916;31;20121;-83
2022/10/23 05:41:16;;;;;;;19.60;10.15;;;;;;;14.30;70.06;99197.97;4488356;31;20423;-83
2022/10/23 05:43:41;;;;;;;19.73;10.18;;;;;;;14.37;69.99;99203.75;4488524;31;20104;-82
2022/10/23 05:46:08;;;;;;;18.98;10.23;;;;;;;14.44;70.07;99210.34;4502738;31;20108;-82
2022/10/23 05:48:33;;;;;;;18.37;9.00;;;;;;;14.52;70.17;99212.50;4488659;31;20114;-83
2022/10/23 05:51:09;;;;;;;18.05;9.63;;;;;;;14.62;70.25;99216.31;4502762;31;20088;-83
2022/10/23 05:53:35;;;;;;;17.30;9.25;;;;;;;14.72;70.61;99211.28;4502796;31;20123;-83
2022/10/23 05:56:05;;;;;;;18.42;9.70;;;;;;;14.85;70.29;99211.31;4502796;31;20099;-84
2022/10/23 05:58:31;;;;;;;18.52;9.93;;;;;;;14.90;70.71;99203.91;4488427;31;20155;-83
2022/10/23 06:00:56;;;;;;;20.02;9.90;;;;;;;14.98;70.78;99204.25;4503043;31;20103;-83
2022/10/23 06:03:21;;;;;;;18.85;10.18;;;;;;;14.97;71.27;99205.22;4503044;31;20375;-83
2022/10/23 06:05:53;;;;;;;20.25;10.85;;;;;;;14.68;72.74;99210.63;4500080;31;81440;-83
2022/10/23 06:08:19;;;;;;;18.45;10.18;;;;;;;15.03;71.61;99211.94;4502734;31;20503;-83
2022/10/23 06:10:44;;;;;;;18.65;9.93;;;;;;;15.26;71.00;99216.53;4502856;31;20180;-83
2022/10/23 06:13:09;;;;;;;19.40;9.85;;;;;;;15.36;71.00;99214.13;4488417;31;20128;-83
2022/10/23 06:15:35;;;;;;;20.02;10.45;;;;;;;15.56;70.27;99217.22;4502614;31;20088;-82
2022/10/23 06:18:03;;;;;;;16.52;8.98;;;;;;;15.64;70.27;99215.72;4502647;31;20103;-82
2022/10/23 06:20:28;;;;;;;17.55;9.52;;;;;;;15.70;70.21;99207.38;4502554;31;20432;-82
2022/10/23 06:22:53;;;;;;;16.85;10.15;;;;;;;15.43;70.54;99214.53;4502408;31;20184;-82
2022/10/23 06:25:19;;;;;;;17.83;9.15;;;;;;;15.77;69.79;99225.56;4502453;31;20149;-82
2022/10/23 06:27:44;;;;;;;16.33;8.77;;;;;;;15.88;69.07;99228.31;4487985;31;20092;-82
2022/10/23 06:30:13;;;;;;;16.37;8.15;;;;;;;15.96;69.04;99228.63;4502369;31;20106;-83
2022/10/23 06:32:38;;;;;;;16.15;8.25;;;;;;;15.86;69.57;99231.09;4502407;31;20091;-83
2022/10/23 06:35:04;;;;;;;15.95;7.87;;;;;;;15.67;69.12;99223.50;4502332;31;20146;-82
2022/10/23 06:37:32;;;;;;;15.75;7.95;;;;;;;15.98;68.73;99234.69;4502341;31;20088;-84
2022/10/23 06:39:58;;;;;;;16.17;8.27;;;;;;;16.20;68.18;99241.16;4502371;31;20092;-83
2022/10/23 06:42:23;;;;;;;17.85;9.55;;;;;;;16.43;67.47;99240.38;4501094;31;20099;-84
2022/10/23 06:44:49;;;;;;;15.85;8.40;;;;;;;16.47;67.59;99248.97;4488149;31;20127;-83
2022/10/23 06:47:14;;;;;;;16.58;7.87;;;;;;;16.52;67.11;99257.47;4502452;31;20371;-82
2022/10/23 06:49:40;;;;;;;14.77;7.72;;;;;;;16.52;66.36;99252.16;4502417;31;20100;-82
2022/10/23 06:52:05;;;;;;;14.15;7.40;;;;;;;16.57;66.24;99254.47;4502495;31;20126;-82
2022/10/23 06:54:30;;;;;;;17.77;8.85;;;;;;;16.33;66.72;99244.66;4488038;31;20123;-82
2022/10/23 06:56:56;;;;;;;17.20;9.93;;;;;;;16.52;66.31;99249.50;4502313;31;20088;-83
2022/10/23 06:59:21;;;;;;;17.67;9.15;;;;;;;16.66;65.87;99254.66;4502335;31;20104;-82
2022/10/23 07:01:47;;;;;;;17.02;9.27;;;;;;;16.76;65.78;99256.66;4502308;31;20126;-84
2022/10/23 07:04:13;;;;;;;16.35;9.02;;;;;;;16.82;65.69;99254.44;4502361;31;20122;-84
2022/10/23 07:06:39;;;;;;;15.18;8.60;;;;;;;16.84;65.86;99249.88;4502183;31;20432;-83
2022/10/23 07:09:04;;;;;;;18.62;10.65;;;;;;;16.97;65.66;99256.94;4494307;31;20114;-80
2022/10/23 07:11:30;;;;;;;18.30;10.68;;;;;;;16.40;65.78;99269.84;4492671;31;20151;-82
2022/10/23 07:13:55;;;;;;;21.83;12.32;;;;;;;16.69;64.99;99261.59;4492159;31;20207;-82
2022/10/23 07:16:21;;;;;;;21.52;12.98;;;;;;;16.75;64.93;99257.66;4489743;31;20115;-83
2022/10/23 07:18:49;;;;;;;21.92;12.27;;;;;;;16.87;64.09;99257.62;4477301;32;20096;-84
2022/10/23 07:21:16;;;;;;;23.38;14.32;;;;;;;17.00;63.56;99257.56;4486774;31;20209;-81
2022/10/23 07:23:41;;;;;;;24.20;14.30;;;;;;;17.04;63.57;99268.84;4486979;31;20091;-84
2022/10/23 07:26:14;;;;;;;22.42;13.62;;;;;;;17.04;63.44;99272.34;4473466;31;20211;-83
2022/10/23 07:28:40;;;;;;;24.33;13.62;;;;;;;17.10;63.46;99266.56;4470302;32;20460;-81
2022/10/23 07:31:06;;;;;;;21.92;12.57;;;;;;;17.14;63.66;99266.34;4475664;31;20100;-82
2022/10/23 07:33:31;;;;;;;26.62;15.60;;;;;;;17.11;63.89;99270.06;4492574;31;20135;-82
2022/10/23 07:35:57;;;;;;;27.80;15.48;;;;;;;16.08;67.16;99282.72;4477993;31;20119;-82
2022/10/23 07:38:22;;;;;;;25.25;15.90;;;;;;;16.19;66.68;99279.34;4473471;31;20144;-82
2022/10/23 07:40:47;;;;;;;26.40;15.80;;;;;;;15.97;67.02;99270.19;4490084;31;20499;-83
2022/10/23 07:43:13;;;;;;;25.42;15.75;;;;;;;16.51;65.10;99267.28;4464722;31;20467;-81
2022/10/23 07:45:39;;;;;;;24.45;15.50;;;;;;;16.69;64.22;99273.09;4477278;31;20148;-81
2022/10/23 07:48:04;;;;;;;26.52;16.05;;;;;;;16.56;64.64;99258.12;4464196;31;20146;-83
2022/10/23 07:50:30;;;;;;;26.37;16.23;;;;;;;16.79;64.10;99270.59;4488383;31;20124;-83
2022/10/23 07:52:57;;;;;;;24.33;15.70;;;;;;;16.89;64.08;99265.50;4473526;31;20168;-82
2022/10/23 07:55:24;;;;;;;25.42;14.70;;;;;;;17.03;63.87;99264.47;4494932;31;20471;-82
2022/10/23 07:57:50;;;;;;;25.30;15.77;;;;;;;17.17;63.51;99271.44;4495429;31;20662;-82
2022/10/23 08:00:17;;;;;;;23.58;15.18;;;;;;;16.93;64.08;99269.63;4476313;31;20135;-81
2022/10/23 08:02:43;;;;;;;22.35;14.90;;;;;;;17.13;63.51;99265.47;4486914;31;20146;-82
2022/10/23 08:05:08;;;;;;;23.60;14.50;;;;;;;17.29;63.03;99266.06;4487138;31;20112;-82
2022/10/23 08:07:33;;;;;;;26.75;16.08;;;;;;;17.26;63.26;99266.28;4494534;31;20092;-83
2022/10/23 08:09:59;;;;;;;23.52;14.80;;;;;;;17.26;63.28;99268.09;4493437;31;20372;-82
2022/10/23 08:12:24;;;;;;;24.00;15.20;;;;;;;17.26;63.42;99268.09;4491912;31;20096;-81
2022/10/23 08:14:50;;;;;;;24.83;15.00;;;;;;;16.90;64.16;99260.06;4491903;31;20108;-81
2022/10/23 08:17:15;;;;;;;23.25;15.18;;;;;;;16.86;64.53;99261.25;4494879;31;20099;-83
2022/10/23 08:19:45;;;;;;;26.12;15.23;;;;;;;17.21;63.53;99260.47;4478496;31;20152;-82
2022/10/23 08:22:11;;;;;;;24.33;15.32;;;;;;;17.41;62.93;99250.97;4464495;31;20175;-82
2022/10/23 08:24:36;;;;;;;23.25;14.68;;;;;;;17.45;62.82;99255.09;4490140;31;20089;-83
2022/10/23 08:27:02;;;;;;;23.77;14.07;;;;;;;17.32;63.09;99254.31;4477360;31;20119;-82
2022/10/23 08:29:27;;;;;;;21.98;13.43;;;;;;;16.87;64.65;99260.28;4477386;31;20170;-81
2022/10/23 08:31:55;;;;;;;22.40;13.02;;;;;;;17.32;63.45;99256.97;4494315;31;20114;-82
2022/10/23 08:34:20;;;;;;;19.83;11.38;;;;;;;17.54;62.84;99252.69;4491988;31;20088;-81
2022/10/23 08:36:49;;;;;;;22.05;13.15;;;;;;;17.65;62.37;99253.59;4475802;32;20387;-81
2022/10/23 08:39:15;;;;;;;20.52;12.88;;;;;;;17.72;62.27;99256.63;4472279;32;20816;-83
2022/10/23 08:41:45;;;;;;;22.13;13.38;;;;;;;17.65;62.87;99263.38;4474203;32;20140;-83
2022/10/23 08:44:37;;;;;;;23.83;15.18;;;;;;;17.78;62.60;99252.66;4471768;31;20125;-82
2022/10/23 08:47:17;;;;;;;25.27;16.45;;;;;;;17.84;62.16;99257.53;4480358;31;20494;-82
2022/10/23 08:49:55;;;;;;;26.12;15.85;;;;;;;17.74;62.83;99256.53;4479308;31;20123;-82
2022/10/23 08:52:32;;;;;;;25.92;15.88;;;;;;;17.91;62.39;99263.25;4493652;31;20466;-83
2022/10/23 08:55:35;;;;;;;22.40;14.47;;;;;;;18.00;62.54;99259.84;4493042;31;20208;-83
2022/10/23 08:58:05;;;;;;;24.50;14.55;;;;;;;18.14;62.15;99254.31;4480014;31;20119;-83
2022/10/23 09:00:35;;;;;;;21.67;13.52;;;;;;;18.18;62.00;99254.91;4467721;32;20132;-83
2022/10/23 09:03:02;;;;;;;19.37;12.73;;;;;;;18.28;61.27;99246.06;4474885;31;20183;-82
2022/10/23 09:05:36;;;;;;;22.60;13.20;;;;;;;18.20;61.17;99245.81;4479604;31;20104;-91
2022/10/23 09:08:16;;;;;;;19.33;12.73;;;;;;;18.23;61.21;99253.59;4469388;31;20527;-81
2022/10/23 09:11:01;;;;;;;19.58;12.35;;;;;;;18.28;61.15;99247.88;4460451;31;20131;-81
2022/10/23 09:13:39;;;;;;;19.30;12.30;;;;;;;17.85;61.87;99245.91;4478053;31;20104;-81
2022/10/23 09:16:55;;;;;;;19.62;11.40;;;;;;;18.10;61.12;99260.84;4462131;32;20100;-81
2022/10/23 09:19:25;;;;;;;19.05;11.73;;;;;;;18.18;60.98;99254.91;4422738;32;20097;-82
2022/10/23 09:21:52;;;;;;;18.87;10.93;;;;;;;18.15;61.11;99258.66;4423645;32;20121;-82
2022/10/23 09:24:20;;;;;;;20.17;11.20;;;;;;;18.27;60.92;99255.03;4426549;32;20109;-81
2022/10/23 09:26:48;;;;;;;17.80;11.05;;;;;;;18.20;61.08;99255.66;4404685;32;20109;-82
2022/10/23 09:29:31;;;;;;;17.10;10.05;;;;;;;18.42;60.37;99250.28;4417453;32;20173;-82
2022/10/23 09:32:02;;;;;;;17.70;10.30;;;;;;;18.44;60.14;99260.84;4405463;32;20098;-81
2022/10/23 09:34:29;;;;;;;18.87;10.55;;;;;;;18.44;60.38;99264.34;4417367;32;20105;-82
2022/10/23 09:37:02;;;;;;;17.60;10.27;;;;;;;18.46;60.10;99264.22;4405432;32;20129;-81
2022/10/23 09:39:33;;;;;;;16.83;10.40;;;;;;;18.43;60.29;99265.34;4397045;32;20108;-82
2022/10/23 09:42:01;;;;;;;15.60;9.20;;;;;;;18.34;60.66;99266.06;4403008;32;20144;-82
2022/10/23 09:44:32;;;;;;;18.05;9.48;;;;;;;18.49;60.22;99263.16;4405752;32;20179;-81
2022/10/23 09:47:06;;;;;;;17.90;9.80;;;;;;;18.39;61.06;99263.03;4414934;32;20098;-81
2022/10/23 09:49:32;;;;;;;17.87;10.38;;;;;;;18.53;60.79;99262.78;4413328;32;20525;-81
2022/10/23 09:52:27;;;;;;;18.53;10.07;;;;;;;18.56;60.63;99267.88;4396483;32;20202;-82
2022/10/23 09:54:55;;;;;;;20.05;10.73;;;;;;;18.64;60.85;99262.78;4434014;31;20085;-82
2022/10/23 09:57:37;;;;;;;20.00;10.80;;;;;;;18.55;61.62;99265.34;4455538;31;20119;-82
2022/10/23 10:00:14;;;;;;;19.48;10.85;;;;;;;18.70;61.32;99261.44;4477844;31;20111;-82
2022/10/23 10:02:42;;;;;;;18.33;10.40;;;;;;;18.74;61.27;99260.22;4484029;31;20119;-80
2022/10/23 10:05:20;;;;;;;20.30;10.95;;;;;;;18.65;61.52;99261.78;4465682;31;20181;-81
2022/10/23 10:07:55;;;;;;;17.98;9.65;;;;;;;18.93;60.75;99250.72;4483081;31;20715;-82
2022/10/23 10:10:20;;;;;;;16.83;10.15;;;;;;;18.97;60.66;99254.84;4470917;31;20115;-81
2022/10/23 10:12:55;;;;;;;18.98;10.52;;;;;;;19.02;60.51;99260.66;4463745;32;20101;-81
2022/10/23 10:15:42;;;;;;;17.58;10.05;;;;;;;19.09;60.30;99256.50;4478790;31;20107;-82
2022/10/23 10:18:22;;;;;;;17.58;10.95;;;;;;;19.08;60.15;99245.94;4472508;31;20096;-82
2022/10/23 10:21:09;;;;;;;17.12;10.38;;;;;;;19.12;59.74;99237.53;4475399;32;20104;-82
2022/10/23 10:24:04;;;;;;;16.73;10.18;;;;;;;19.14;59.58;99240.09;4480219;31;20130;-82
2022/10/23 10:26:30;;;;;;;17.52;10.52;;;;;;;19.19;59.37;99235.22;4472648;31;20660;-81
2022/10/23 10:29:09;;;;;;;15.35;9.30;;;;;;;19.18;59.05;99231.72;4488609;31;20100;-81
2022/10/23 10:31:45;;;;;;;16.58;9.65;;;;;;;19.19;58.91;99224.53;4472117;31;20100;-81
2022/10/23 10:34:32;;;;;;;16.67;9.32;;;;;;;19.26;59.07;99225.75;4487046;31;20104;-81
2022/10/23 10:37:20;;;;;;;16.33;10.05;;;;;;;18.75;61.09;99226.34;4492654;31;20108;-81
2022/10/23 10:40:07;;;;;;;15.57;8.68;;;;;;;18.66;61.48;99228.81;4468676;32;20115;-83
2022/10/23 10:43:13;;;;;;;13.60;7.10;;;;;;;19.06;59.81;99222.03;4480487;32;20150;-83
2022/10/23 10:45:48;;;;;;;13.18;6.65;;;;;;;18.90;59.54;99222.47;4472672;31;20127;-84
2022/10/23 10:48:41;;;;;;;11.52;5.55;;;;;;;18.84;59.86;99215.81;4488391;31;20099;-83
2022/10/23 10:51:25;;;;;;;13.40;6.68;;;;;;;19.20;58.52;99218.22;4469711;32;20507;-83
2022/10/23 10:54:08;;;;;;;12.77;5.43;;;;;;;19.02;59.08;99212.59;4482753;32;20084;-82
2022/10/23 10:56:38;;;;;;;12.48;5.85;;;;;;;19.11;58.64;99203.81;4481893;32;20718;-84
2022/10/23 10:59:13;;;;;;;12.15;5.78;;;;;;;19.25;57.95;99213.34;4484087;31;20101;-84
2022/10/23 11:01:44;;;;;;;11.45;5.28;;;;;;;19.25;58.10;99206.16;4480748;31;20092;-83
2022/10/23 11:04:45;;;;;;;12.15;6.03;;;;;;;19.28;57.98;99202.41;4471769;31;20171;-83
2022/10/23 11:07:13;;;;;;;12.20;6.15;;;;;;;19.43;57.59;99194.91;4466539;31;20103;-83
2022/10/23 11:09:39;;;;;;;12.20;5.85;;;;;;;19.54;57.16;99186.81;4456295;31;20155;-84
2022/10/23 11:12:04;;;;;;;13.85;6.35;;;;;;;19.47;57.02;99185.69;4494202;31;20114;-84
2022/10/23 11:14:34;;;;;;;11.95;5.68;;;;;;;19.56;56.98;99176.00;4474669;31;20124;-83
2022/10/23 11:17:23;;;;;;;12.98;5.93;;;;;;;19.60;56.74;99174.75;4486392;31;20109;-83
2022/10/23 11:19:58;;;;;;;13.60;6.30;;;;;;;19.56;56.76;99182.19;4469194;31;20158;-83
2022/10/23 11:22:29;;;;;;;13.23;6.43;;;;;;;19.18;57.59;99178.31;4475916;32;20111;-84
2022/10/23 11:25:11;;;;;;;13.98;6.15;;;;;;;19.52;56.80;99180.78;4475083;31;20124;-84
2022/10/23 11:28:14;;;;;;;15.35;6.30;;;;;;;19.35;56.61;99181.34;4476218;31;20128;-84
2022/10/23 11:31:00;;;;;;;14.98;6.93;;;;;;;19.39;56.50;99180.13;4472706;31;20105;-83
2022/10/23 11:34:03;;;;;;;17.05;8.43;;;;;;;19.39;56.46;99175.66;4459481;32;20104;-84